weather.gov     
National Weather Service

Terminal Aerodrome Forecast
NWS Homepage
This page is being discontinued on March 12, 2014.
The same data is available at this site. Please update your bookmarks.
Thank you, and we apologize for the inconvenience.
Please send an email to SR-SRH.Webmaster@noaa.gov with any concerns.


Current Version
Previous Version:    01  02  03  04  05  06  07  08  09  10  11  12  13  14  15  16  17  18  19  20  21  22  23  24  25  26  27  28  29  
[Printable]
906
FTUS43 KMQT 241100
TAFCMX
TAF
KCMX 241123Z 2412/2512 12004KT P6SM OVC110
     FM241500 11008KT P6SM OVC060
     FM241800 11011KT P6SM -RA OVC045
     FM242200 11012KT 4SM -SNRA OVC015
     FM250000 11016KT 2SM -SN BLSN OVC008
     FM250800 11010KT 4SM -SN OVC005=


U.S. Dept. of Commerce
NOAA National Weather Service
1325 East West Highway
Silver Spring, MD 20910
E-mail: w-nws.webmaster@noaa.gov
Page last modified: May 16, 2007
NATIONAL WEATHER SERVICE: for Safety, for Work, for Fun - FOR LIFE